Time;durP1;ratioP1;P1;durP2;ratioP2;P2;SDS_P1;SDS_P2;PMS_P1;PMS_P2;Temp;Humidity;BMP_temperature;BMP_pressure;BME280_temperature;BME280_humidity;BME280_pressure;Samples;Min_cycle;Max_cycle;Signal;HPM_P1;HPM_P2
2021/03/01 00:00:50;;;;;;;21.23;15.60;;;;;;;;;;5086041;28;20233;-77
2021/03/01 00:03:18;;;;;;;20.23;16.23;;;;;;;;;;5071490;28;20241;-77
2021/03/01 00:05:45;;;;;;;19.33;15.10;;;;;;;;;;5070900;28;20234;-78
2021/03/01 00:08:13;;;;;;;21.10;15.50;;;;;;;;;;5089011;28;20236;-77
2021/03/01 00:10:42;;;;;;;19.77;14.73;;;;;;;;;;5097267;28;20236;-78
2021/03/01 00:13:09;;;;;;;21.10;15.83;;;;;;;;;;5090377;28;20235;-79
2021/03/01 00:15:37;;;;;;;22.93;16.60;;;;;;;;;;5071905;28;20240;-78
2021/03/01 00:18:05;;;;;;;19.03;15.43;;;;;;;;;;5075614;28;20239;-77
2021/03/01 00:20:33;;;;;;;21.97;16.63;;;;;;;;;;5071183;28;20233;-79
2021/03/01 00:23:01;;;;;;;21.70;15.90;;;;;;;;;;5089967;28;20233;-77
2021/03/01 00:25:28;;;;;;;22.37;16.83;;;;;;;;;;5071758;28;20228;-78
2021/03/01 00:27:58;;;;;;;21.70;15.80;;;;;;;;;;5080476;28;20244;-77
2021/03/01 00:30:26;;;;;;;22.20;15.63;;;;;;;;;;5071299;28;20725;-77
2021/03/01 00:32:53;;;;;;;19.63;15.20;;;;;;;;;;5058433;28;20224;-77
2021/03/01 00:35:21;;;;;;;20.53;15.00;;;;;;;;;;5090730;28;20231;-77
2021/03/01 00:37:49;;;;;;;22.23;15.73;;;;;;;;;;5086888;28;20233;-78
2021/03/01 00:40:22;;;;;;;23.77;15.33;;;;;;;;;;5090903;28;20240;-78
2021/03/01 00:42:49;;;;;;;21.07;15.37;;;;;;;;;;5051062;28;20247;-78
2021/03/01 00:45:18;;;;;;;20.13;15.40;;;;;;;;;;5083754;28;20235;-78
2021/03/01 00:47:46;;;;;;;20.47;14.93;;;;;;;;;;5047989;28;20241;-77
2021/03/01 00:50:14;;;;;;;19.77;15.07;;;;;;;;;;5066895;28;20605;-77
2021/03/01 00:52:43;;;;;;;20.87;16.27;;;;;;;;;;5067187;28;20351;-78
2021/03/01 00:55:11;;;;;;;21.10;15.67;;;;;;;;;;5064541;28;20236;-77
2021/03/01 00:57:38;;;;;;;27.97;16.20;;;;;;;;;;5067465;28;20229;-78
2021/03/01 01:00:14;;;;;;;19.40;15.27;;;;;;;;;;5050587;28;21821;-79
2021/03/01 01:02:48;;;;;;;18.37;15.10;;;;;;;;;;5050348;28;20230;-78
2021/03/01 01:05:43;;;;;;;19.57;15.43;;;;;;;;;;5061005;28;20225;-78
2021/03/01 01:08:11;;;;;;;21.50;16.10;;;;;;;;;;5086527;28;20242;-77
2021/03/01 01:10:39;;;;;;;22.83;15.87;;;;;;;;;;5083924;28;20261;-77
2021/03/01 01:13:06;;;;;;;22.13;15.10;;;;;;;;;;5089144;28;20237;-78
2021/03/01 01:15:35;;;;;;;20.03;14.77;;;;;;;;;;5054841;28;20233;-78
2021/03/01 01:18:05;;;;;;;19.33;14.50;;;;;;;;;;5061880;28;20224;-77
2021/03/01 01:20:34;;;;;;;20.23;15.03;;;;;;;;;;5077944;28;20874;-76
2021/03/01 01:23:02;;;;;;;21.53;14.90;;;;;;;;;;5082016;28;20223;-78
2021/03/01 01:25:30;;;;;;;20.13;15.33;;;;;;;;;;5073648;28;20606;-77
2021/03/01 01:27:57;;;;;;;17.87;14.40;;;;;;;;;;5070089;28;20229;-79
2021/03/01 01:30:27;;;;;;;20.07;14.33;;;;;;;;;;5081523;28;20223;-77
2021/03/01 01:32:55;;;;;;;24.10;15.87;;;;;;;;;;5085828;28;20208;-77
2021/03/01 01:35:23;;;;;;;22.60;16.50;;;;;;;;;;5102505;28;20236;-77
2021/03/01 01:37:51;;;;;;;27.37;18.83;;;;;;;;;;5080303;28;20237;-79
2021/03/01 01:40:20;;;;;;;38.47;22.10;;;;;;;;;;5064532;28;20624;-78
2021/03/01 01:42:48;;;;;;;44.77;26.80;;;;;;;;;;5062051;28;20232;-78
2021/03/01 01:45:19;;;;;;;49.73;27.90;;;;;;;;;;5044425;28;20236;-78
2021/03/01 01:47:48;;;;;;;64.73;33.57;;;;;;;;;;5064091;28;20236;-77
2021/03/01 01:50:17;;;;;;;99.37;43.03;;;;;;;;;;5039827;28;20246;-77
2021/03/01 01:52:45;;;;;;;137.87;56.83;;;;;;;;;;5069189;28;20418;-77
2021/03/01 01:55:14;;;;;;;149.13;57.77;;;;;;;;;;5072113;28;20229;-80
2021/03/01 01:57:42;;;;;;;151.37;63.13;;;;;;;;;;5093954;28;20239;-78
2021/03/01 02:00:20;;;;;;;174.00;68.33;;;;;;;;;;5097812;28;20216;-78
2021/03/01 02:02:50;;;;;;;193.90;77.03;;;;;;;;;;5070349;28;20223;-76
2021/03/01 02:05:18;;;;;;;245.03;93.37;;;;;;;;;;5075994;28;20224;-77
2021/03/01 02:07:54;;;;;;;258.97;103.37;;;;;;;;;;5072042;28;20470;-79
2021/03/01 02:10:31;;;;;;;305.80;122.13;;;;;;;;;;5090597;28;20223;-78
2021/03/01 02:13:05;;;;;;;353.33;130.03;;;;;;;;;;5091603;28;20219;-78
2021/03/01 02:15:40;;;;;;;280.73;107.07;;;;;;;;;;5090705;28;20239;-76
2021/03/01 02:18:09;;;;;;;249.77;96.50;;;;;;;;;;5081815;28;20232;-78
2021/03/01 02:20:41;;;;;;;235.03;94.63;;;;;;;;;;5083131;28;20227;-78
2021/03/01 02:23:11;;;;;;;247.17;101.23;;;;;;;;;;5101360;28;20226;-78
2021/03/01 02:25:42;;;;;;;290.27;108.43;;;;;;;;;;5106065;28;20225;-80
2021/03/01 02:28:12;;;;;;;282.47;112.27;;;;;;;;;;5082771;28;20235;-78
2021/03/01 02:30:42;;;;;;;280.77;114.67;;;;;;;;;;5099727;28;20234;-78
2021/03/01 02:33:13;;;;;;;275.40;111.37;;;;;;;;;;5115618;28;20227;-77
2021/03/01 02:35:48;;;;;;;271.70;113.30;;;;;;;;;;5102759;28;20237;-78
2021/03/01 02:38:21;;;;;;;318.33;125.33;;;;;;;;;;5081883;28;20233;-79
2021/03/01 02:40:50;;;;;;;301.13;122.83;;;;;;;;;;5088924;28;20241;-77
2021/03/01 02:43:18;;;;;;;301.20;123.73;;;;;;;;;;5090987;28;20240;-78
2021/03/01 02:45:47;;;;;;;286.60;123.40;;;;;;;;;;5094157;28;20728;-77
2021/03/01 02:48:15;;;;;;;290.77;120.83;;;;;;;;;;5078039;28;20230;-77
2021/03/01 02:50:43;;;;;;;287.33;116.30;;;;;;;;;;5073432;28;20223;-78
2021/03/01 02:53:12;;;;;;;307.33;127.77;;;;;;;;;;5068572;28;20234;-78
2021/03/01 02:55:44;;;;;;;293.33;119.17;;;;;;;;;;5092693;28;20239;-79
2021/03/01 02:58:12;;;;;;;270.53;112.57;;;;;;;;;;5088691;27;20222;-78
2021/03/01 03:00:41;;;;;;;270.87;109.07;;;;;;;;;;5070089;28;20468;-77
2021/03/01 03:03:12;;;;;;;256.53;107.23;;;;;;;;;;5069366;28;20230;-78
2021/03/01 03:05:42;;;;;;;174.70;76.97;;;;;;;;;;5069259;28;20230;-78
2021/03/01 03:08:12;;;;;;;131.37;58.70;;;;;;;;;;5084195;28;20240;-78
2021/03/01 03:10:40;;;;;;;103.93;47.33;;;;;;;;;;5081882;28;20215;-78
2021/03/01 03:13:10;;;;;;;93.47;44.73;;;;;;;;;;5082588;27;20235;-79
2021/03/01 03:15:39;;;;;;;84.60;42.33;;;;;;;;;;5090168;28;20242;-78
2021/03/01 03:18:11;;;;;;;78.83;39.53;;;;;;;;;;5082231;28;20234;-78
2021/03/01 03:20:39;;;;;;;75.23;37.00;;;;;;;;;;5067476;28;20687;-77
2021/03/01 03:23:06;;;;;;;80.73;38.57;;;;;;;;;;5073308;28;20231;-77
2021/03/01 03:25:34;;;;;;;110.67;50.00;;;;;;;;;;5093515;28;20227;-77
2021/03/01 03:28:04;;;;;;;114.97;49.63;;;;;;;;;;5086739;28;20397;-77
2021/03/01 03:30:33;;;;;;;106.83;49.43;;;;;;;;;;5077564;28;20222;-77
2021/03/01 03:33:02;;;;;;;98.27;44.30;;;;;;;;;;5066259;28;20589;-77
2021/03/01 03:35:30;;;;;;;70.07;34.37;;;;;;;;;;5046525;28;20463;-78
2021/03/01 03:38:03;;;;;;;43.60;24.80;;;;;;;;;;5073404;28;20215;-78
2021/03/01 03:40:32;;;;;;;40.90;22.77;;;;;;;;;;5069741;28;20241;-77
2021/03/01 03:43:01;;;;;;;38.43;22.60;;;;;;;;;;5044489;28;20228;-78
2021/03/01 03:45:28;;;;;;;38.20;22.17;;;;;;;;;;5060800;28;20239;-76
2021/03/01 03:48:01;;;;;;;39.63;23.13;;;;;;;;;;5060918;28;20228;-79
2021/03/01 03:50:30;;;;;;;38.10;23.10;;;;;;;;;;5091749;28;20235;-77
2021/03/01 03:53:00;;;;;;;46.20;24.67;;;;;;;;;;5066229;28;20231;-77
2021/03/01 03:55:28;;;;;;;61.07;29.97;;;;;;;;;;5068993;28;20238;-78
2021/03/01 03:57:58;;;;;;;46.10;26.87;;;;;;;;;;5069394;28;20734;-76
2021/03/01 04:00:27;;;;;;;54.87;27.40;;;;;;;;;;5065946;28;20228;-78
2021/03/01 04:02:58;;;;;;;49.00;27.67;;;;;;;;;;5046975;28;20219;-78
2021/03/01 04:05:26;;;;;;;37.37;22.37;;;;;;;;;;5075897;28;20233;-77
2021/03/01 04:07:55;;;;;;;38.07;21.93;;;;;;;;;;5069520;28;20246;-78
2021/03/01 04:10:23;;;;;;;32.63;18.77;;;;;;;;;;5063724;28;20223;-77
2021/03/01 04:12:53;;;;;;;27.67;18.30;;;;;;;;;;5079724;28;20231;-78
2021/03/01 04:15:21;;;;;;;29.53;18.23;;;;;;;;;;5072675;28;20232;-78
2021/03/01 04:17:49;;;;;;;27.03;17.87;;;;;;;;;;5075126;28;20231;-78
2021/03/01 04:20:22;;;;;;;23.83;16.37;;;;;;;;;;5074111;28;20235;-77
2021/03/01 04:22:51;;;;;;;26.80;17.67;;;;;;;;;;5073883;28;20228;-77
2021/03/01 04:25:20;;;;;;;28.23;17.37;;;;;;;;;;5049492;28;20232;-77
2021/03/01 04:27:47;;;;;;;23.27;16.27;;;;;;;;;;5064047;28;20248;-77
2021/03/01 04:30:17;;;;;;;22.87;16.87;;;;;;;;;;5069075;28;20728;-77
2021/03/01 04:32:47;;;;;;;25.80;15.97;;;;;;;;;;5083124;28;20233;-76
2021/03/01 04:35:19;;;;;;;22.20;16.13;;;;;;;;;;5079463;28;20242;-75
2021/03/01 04:37:47;;;;;;;24.47;17.53;;;;;;;;;;5080573;28;20246;-78
2021/03/01 04:40:16;;;;;;;25.00;16.90;;;;;;;;;;5073024;28;20595;-77
2021/03/01 04:42:45;;;;;;;25.17;16.17;;;;;;;;;;5059211;28;20227;-77
2021/03/01 04:45:15;;;;;;;23.57;16.93;;;;;;;;;;5097677;28;20226;-77
2021/03/01 04:47:43;;;;;;;24.60;16.90;;;;;;;;;;5077362;28;21268;-77
2021/03/01 04:50:12;;;;;;;21.33;15.73;;;;;;;;;;5070432;28;20614;-77
2021/03/01 04:52:43;;;;;;;21.97;16.23;;;;;;;;;;5067965;28;20321;-79
2021/03/01 04:55:11;;;;;;;23.50;16.47;;;;;;;;;;5067219;28;20284;-77
2021/03/01 04:57:39;;;;;;;21.63;16.17;;;;;;;;;;5076903;28;20252;-78
2021/03/01 05:00:10;;;;;;;22.30;16.67;;;;;;;;;;5089052;28;20206;-78
2021/03/01 05:02:38;;;;;;;23.23;17.90;;;;;;;;;;5098116;28;20235;-78
2021/03/01 05:05:08;;;;;;;23.30;17.00;;;;;;;;;;5067963;28;20232;-77
2021/03/01 05:07:36;;;;;;;19.87;15.73;;;;;;;;;;5078386;28;20238;-78
2021/03/01 05:10:06;;;;;;;23.13;15.83;;;;;;;;;;5068848;28;20230;-78
2021/03/01 05:12:34;;;;;;;24.13;16.70;;;;;;;;;;5073395;28;20239;-77
2021/03/01 05:15:02;;;;;;;21.63;15.90;;;;;;;;;;5088854;28;20230;-78
2021/03/01 05:17:30;;;;;;;22.93;16.93;;;;;;;;;;5078338;28;20223;-76
2021/03/01 05:19:58;;;;;;;23.97;16.70;;;;;;;;;;5048498;28;20235;-78
2021/03/01 05:22:25;;;;;;;24.87;17.47;;;;;;;;;;5081503;28;20233;-77
2021/03/01 05:24:53;;;;;;;25.43;16.73;;;;;;;;;;5075345;27;20245;-78
2021/03/01 05:27:22;;;;;;;25.03;17.47;;;;;;;;;;5088333;28;20218;-77
2021/03/01 05:29:49;;;;;;;24.53;17.93;;;;;;;;;;5069490;28;20240;-78
2021/03/01 05:32:17;;;;;;;25.40;18.00;;;;;;;;;;5057424;28;20379;-77
2021/03/01 05:34:45;;;;;;;21.60;16.57;;;;;;;;;;5080823;28;20705;-79
2021/03/01 05:37:13;;;;;;;26.90;17.17;;;;;;;;;;5077901;28;20238;-78
2021/03/01 05:39:41;;;;;;;23.13;16.10;;;;;;;;;;5080350;28;20232;-76
2021/03/01 05:42:10;;;;;;;24.87;17.43;;;;;;;;;;5096292;28;20237;-77
2021/03/01 05:44:39;;;;;;;23.20;16.87;;;;;;;;;;5088984;28;20238;-78
2021/03/01 05:47:17;;;;;;;22.73;16.73;;;;;;;;;;5090270;28;20217;-78
2021/03/01 05:49:46;;;;;;;24.23;16.63;;;;;;;;;;5069074;28;20241;-78
2021/03/01 05:52:16;;;;;;;22.77;16.60;;;;;;;;;;5068843;28;20213;-77
2021/03/01 05:54:45;;;;;;;24.07;17.13;;;;;;;;;;5083865;28;20853;-78
2021/03/01 05:57:13;;;;;;;25.33;18.43;;;;;;;;;;5089739;28;20234;-79
2021/03/01 05:59:46;;;;;;;24.33;18.53;;;;;;;;;;5077810;28;20230;-77
2021/03/01 06:02:16;;;;;;;21.53;16.53;;;;;;;;;;5082827;28;20225;-79
2021/03/01 06:04:44;;;;;;;22.60;16.73;;;;;;;;;;5088705;28;20249;-79
2021/03/01 06:07:12;;;;;;;22.63;16.63;;;;;;;;;;5087202;28;20222;-77
2021/03/01 06:09:40;;;;;;;23.83;16.70;;;;;;;;;;5080877;28;20229;-77
2021/03/01 06:12:08;;;;;;;24.70;17.20;;;;;;;;;;5062127;28;20222;-78
2021/03/01 06:14:36;;;;;;;22.67;16.83;;;;;;;;;;5080080;28;20237;-77
2021/03/01 06:17:15;;;;;;;24.83;16.57;;;;;;;;;;5072552;28;20218;-79
2021/03/01 06:19:48;;;;;;;23.40;17.40;;;;;;;;;;5094609;28;20229;-78
2021/03/01 06:22:17;;;;;;;21.47;17.63;;;;;;;;;;5089553;28;20994;-77
2021/03/01 06:25:06;;;;;;;31.00;18.13;;;;;;;;;;5083064;28;20233;-77
2021/03/01 06:27:52;;;;;;;25.37;16.67;;;;;;;;;;5058616;28;20233;-78
2021/03/01 06:30:21;;;;;;;25.00;17.40;;;;;;;;;;5083291;28;20270;-78
2021/03/01 06:33:06;;;;;;;23.00;17.03;;;;;;;;;;5088412;28;20226;-79
2021/03/01 06:35:37;;;;;;;23.83;17.27;;;;;;;;;;5061692;28;20726;-79
2021/03/01 06:38:25;;;;;;;30.37;18.00;;;;;;;;;;5100462;28;20229;-78
2021/03/01 06:41:14;;;;;;;27.00;17.27;;;;;;;;;;5062460;28;20253;-79
2021/03/01 06:43:53;;;;;;;27.90;17.70;;;;;;;;;;5072020;28;20733;-79
2021/03/01 06:46:22;;;;;;;24.57;18.20;;;;;;;;;;5089549;28;20226;-78
2021/03/01 06:48:50;;;;;;;23.93;16.77;;;;;;;;;;5083671;28;20226;-78
2021/03/01 06:51:18;;;;;;;26.40;17.80;;;;;;;;;;5086497;28;20226;-78
2021/03/01 06:53:46;;;;;;;26.60;17.33;;;;;;;;;;5085647;28;20250;-78
2021/03/01 06:56:16;;;;;;;25.13;17.73;;;;;;;;;;5085789;28;20599;-79
2021/03/01 06:58:45;;;;;;;24.53;15.87;;;;;;;;;;5066617;28;20231;-78
2021/03/01 07:01:14;;;;;;;27.47;17.27;;;;;;;;;;5071051;28;20239;-79
2021/03/01 07:03:43;;;;;;;25.73;16.87;;;;;;;;;;5053015;28;20227;-78
2021/03/01 07:06:12;;;;;;;26.47;16.83;;;;;;;;;;5094037;28;20240;-79
2021/03/01 07:08:44;;;;;;;27.03;18.10;;;;;;;;;;5110670;28;20223;-78
2021/03/01 07:11:26;;;;;;;27.13;17.07;;;;;;;;;;5083616;28;20588;-78
2021/03/01 07:13:57;;;;;;;27.13;17.23;;;;;;;;;;5066850;28;20637;-77
2021/03/01 07:16:26;;;;;;;25.37;17.37;;;;;;;;;;5091337;28;20705;-78
2021/03/01 07:18:55;;;;;;;25.63;17.07;;;;;;;;;;5091616;28;20236;-78
2021/03/01 07:21:25;;;;;;;28.27;18.27;;;;;;;;;;5086683;28;20231;-79
2021/03/01 07:23:53;;;;;;;28.13;16.60;;;;;;;;;;5101272;28;20593;-78
2021/03/01 07:26:25;;;;;;;32.47;16.57;;;;;;;;;;5080334;28;20258;-79
2021/03/01 07:28:56;;;;;;;25.03;17.20;;;;;;;;;;5081524;28;20245;-80
2021/03/01 07:31:26;;;;;;;30.40;18.77;;;;;;;;;;5093347;28;20219;-79
2021/03/01 07:33:55;;;;;;;26.00;17.03;;;;;;;;;;5087230;28;20698;-79
2021/03/01 07:36:23;;;;;;;27.37;18.20;;;;;;;;;;5078750;28;20228;-80
2021/03/01 07:38:51;;;;;;;26.70;17.27;;;;;;;;;;5067434;28;20228;-79
2021/03/01 07:41:19;;;;;;;26.80;17.67;;;;;;;;;;5070593;28;20234;-79
2021/03/01 07:43:47;;;;;;;26.77;16.93;;;;;;;;;;5077129;28;20239;-80
2021/03/01 07:46:14;;;;;;;29.27;18.30;;;;;;;;;;5083609;28;20227;-79
2021/03/01 07:48:43;;;;;;;24.10;17.30;;;;;;;;;;5079263;28;20232;-79
2021/03/01 07:51:12;;;;;;;28.17;18.20;;;;;;;;;;5094843;28;20240;-79
2021/03/01 07:53:49;;;;;;;29.77;18.37;;;;;;;;;;5097981;28;20232;-78
2021/03/01 07:56:50;;;;;;;28.37;18.63;;;;;;;;;;5094527;28;20229;-78
2021/03/01 07:59:36;;;;;;;25.37;18.23;;;;;;;;;;5098930;28;20236;-79
2021/03/01 08:02:12;;;;;;;29.53;17.70;;;;;;;;;;5103389;28;20240;-79
2021/03/01 08:04:39;;;;;;;25.47;17.70;;;;;;;;;;5093453;28;20232;-78
2021/03/01 08:07:07;;;;;;;23.40;16.50;;;;;;;;;;5109848;27;20212;-79
2021/03/01 08:09:53;;;;;;;26.07;17.50;;;;;;;;;;5099600;28;20235;-79
2021/03/01 08:12:52;;;;;;;26.53;16.77;;;;;;;;;;5117422;28;20234;-78
2021/03/01 08:15:23;;;;;;;23.93;17.30;;;;;;;;;;5077756;28;20249;-80
2021/03/01 08:17:54;;;;;;;27.93;17.90;;;;;;;;;;5070473;28;20232;-81
2021/03/01 08:20:54;;;;;;;23.60;16.50;;;;;;;;;;5064037;28;20232;-81
2021/03/01 08:23:34;;;;;;;38.27;18.67;;;;;;;;;;5086192;28;20225;-80
2021/03/01 08:26:04;;;;;;;27.80;16.67;;;;;;;;;;5066931;28;20249;-79
2021/03/01 08:28:51;;;;;;;25.63;15.97;;;;;;;;;;5075554;28;20226;-81
2021/03/01 08:31:21;;;;;;;22.57;14.30;;;;;;;;;;5097285;28;20236;-81
2021/03/01 08:33:49;;;;;;;22.63;14.33;;;;;;;;;;5090177;28;20222;-81
2021/03/01 08:36:29;;;;;;;23.60;13.73;;;;;;;;;;5087890;28;20226;-79
2021/03/01 08:38:58;;;;;;;18.73;12.83;;;;;;;;;;5055111;28;20726;-79
2021/03/01 08:41:44;;;;;;;21.60;13.40;;;;;;;;;;5049700;28;20234;-82
2021/03/01 08:44:20;;;;;;;20.03;13.77;;;;;;;;;;5070603;28;20296;-78
2021/03/01 08:46:48;;;;;;;26.80;13.60;;;;;;;;;;5075015;28;20232;-80
2021/03/01 08:49:26;;;;;;;20.90;12.83;;;;;;;;;;5050666;28;20488;-80
2021/03/01 08:51:57;;;;;;;18.50;12.77;;;;;;;;;;5047635;28;20227;-79
2021/03/01 08:54:29;;;;;;;20.50;13.17;;;;;;;;;;5055727;28;20219;-80
2021/03/01 08:57:08;;;;;;;20.63;13.77;;;;;;;;;;5051214;28;20238;-81
2021/03/01 08:59:36;;;;;;;22.70;12.93;;;;;;;;;;5059922;28;20227;-80
2021/03/01 09:02:04;;;;;;;18.67;12.83;;;;;;;;;;5065918;28;20235;-81
2021/03/01 09:04:32;;;;;;;19.17;12.43;;;;;;;;;;5072193;28;20223;-81
2021/03/01 09:07:08;;;;;;;20.73;13.27;;;;;;;;;;5053378;28;20227;-80
2021/03/01 09:09:46;;;;;;;23.60;14.10;;;;;;;;;;5075243;28;20221;-80
2021/03/01 09:12:18;;;;;;;19.43;12.83;;;;;;;;;;5083670;28;20237;-79
2021/03/01 09:14:47;;;;;;;22.60;13.80;;;;;;;;;;5086088;28;20250;-80
2021/03/01 09:17:15;;;;;;;22.77;13.83;;;;;;;;;;5075403;28;20226;-80
2021/03/01 09:19:44;;;;;;;21.83;14.63;;;;;;;;;;5085105;28;20224;-81
2021/03/01 09:22:11;;;;;;;22.13;14.50;;;;;;;;;;5077061;28;20234;-82
2021/03/01 09:24:39;;;;;;;22.63;14.23;;;;;;;;;;5119396;27;20233;-82
2021/03/01 09:27:06;;;;;;;20.47;14.30;;;;;;;;;;5090297;28;20233;-79
2021/03/01 09:29:35;;;;;;;19.80;13.17;;;;;;;;;;5073586;28;20224;-82
2021/03/01 09:32:04;;;;;;;21.60;13.80;;;;;;;;;;5086701;28;20228;-79
2021/03/01 09:34:32;;;;;;;20.07;14.23;;;;;;;;;;5072258;28;20742;-82
2021/03/01 09:37:15;;;;;;;22.73;15.07;;;;;;;;;;5074258;28;20218;-80
2021/03/01 09:39:43;;;;;;;20.40;13.73;;;;;;;;;;5072415;28;20238;-79
2021/03/01 09:42:11;;;;;;;19.70;14.23;;;;;;;;;;5070539;28;20236;-80
2021/03/01 09:44:42;;;;;;;22.57;14.00;;;;;;;;;;5074116;28;20701;-80
2021/03/01 09:47:10;;;;;;;19.93;13.97;;;;;;;;;;5063515;28;20238;-80
2021/03/01 09:49:40;;;;;;;20.13;13.80;;;;;;;;;;5065664;28;20236;-81
2021/03/01 09:52:08;;;;;;;20.57;13.37;;;;;;;;;;5053390;28;20240;-80
2021/03/01 09:54:39;;;;;;;20.90;15.20;;;;;;;;;;5070878;28;20238;-79
2021/03/01 09:57:08;;;;;;;21.03;14.30;;;;;;;;;;5065865;28;20222;-82
2021/03/01 09:59:37;;;;;;;23.60;15.40;;;;;;;;;;5065187;28;20234;-82
2021/03/01 10:02:07;;;;;;;23.07;13.73;;;;;;;;;;5071367;28;20229;-79
2021/03/01 10:04:35;;;;;;;18.27;12.20;;;;;;;;;;5081525;28;20221;-82
2021/03/01 10:07:17;;;;;;;21.83;15.00;;;;;;;;;;5089729;28;20226;-81
2021/03/01 10:09:45;;;;;;;19.60;14.37;;;;;;;;;;5054043;28;20696;-78
2021/03/01 10:12:13;;;;;;;18.37;14.10;;;;;;;;;;5069100;28;20229;-80
2021/03/01 10:14:41;;;;;;;18.93;14.43;;;;;;;;;;5059428;28;20599;-81
2021/03/01 10:17:17;;;;;;;19.27;14.30;;;;;;;;;;5063832;28;20236;-79
2021/03/01 10:19:46;;;;;;;20.53;14.27;;;;;;;;;;5042697;28;20597;-80
2021/03/01 10:22:14;;;;;;;19.57;13.67;;;;;;;;;;5056044;28;20226;-81
2021/03/01 10:24:42;;;;;;;19.40;14.70;;;;;;;;;;5053351;28;20241;-81
2021/03/01 10:27:10;;;;;;;17.37;13.53;;;;;;;;;;5059227;28;20687;-80
2021/03/01 10:29:39;;;;;;;14.63;11.97;;;;;;;;;;5066786;28;20798;-79
2021/03/01 10:32:18;;;;;;;20.23;14.13;;;;;;;;;;5091689;28;20230;-81
2021/03/01 10:34:47;;;;;;;19.80;13.80;;;;;;;;;;5062841;28;20494;-80
2021/03/01 10:37:16;;;;;;;17.37;13.07;;;;;;;;;;5074612;28;20674;-79
2021/03/01 10:39:46;;;;;;;21.43;14.50;;;;;;;;;;5072225;28;20230;-79
2021/03/01 10:42:15;;;;;;;17.80;14.07;;;;;;;;;;5081446;28;20229;-80
2021/03/01 10:44:45;;;;;;;17.10;13.33;;;;;;;;;;5052004;28;20234;-81
2021/03/01 10:47:14;;;;;;;17.43;13.27;;;;;;;;;;5059935;28;20218;-81
2021/03/01 10:49:43;;;;;;;18.17;13.30;;;;;;;;;;5061501;28;20241;-81
2021/03/01 10:52:12;;;;;;;16.90;12.90;;;;;;;;;;5060216;28;20740;-81
2021/03/01 10:54:44;;;;;;;17.57;13.93;;;;;;;;;;5099169;28;20230;-80
2021/03/01 10:57:12;;;;;;;17.23;13.37;;;;;;;;;;5042790;28;20222;-80
2021/03/01 10:59:39;;;;;;;18.27;14.60;;;;;;;;;;5073231;28;20240;-82
2021/03/01 11:02:08;;;;;;;18.27;14.13;;;;;;;;;;5043446;28;20711;-80
2021/03/01 11:04:36;;;;;;;16.20;13.27;;;;;;;;;;5069980;28;20230;-80
2021/03/01 11:07:04;;;;;;;17.07;13.70;;;;;;;;;;5054066;28;20223;-82
2021/03/01 11:09:32;;;;;;;17.27;13.97;;;;;;;;;;5058002;28;20223;-81
2021/03/01 11:11:59;;;;;;;16.63;14.33;;;;;;;;;;5075680;28;20230;-80
2021/03/01 11:14:27;;;;;;;15.20;13.70;;;;;;;;;;5049211;28;20224;-82
2021/03/01 11:16:54;;;;;;;15.83;13.13;;;;;;;;;;5062062;28;20227;-81
2021/03/01 11:19:23;;;;;;;16.30;14.60;;;;;;;;;;5057017;28;20226;-81
2021/03/01 11:21:51;;;;;;;14.52;13.00;;;;;;;;;;5062002;28;20700;-82
2021/03/01 11:24:22;;;;;;;15.27;13.73;;;;;;;;;;5047825;28;20250;-83
2021/03/01 11:26:51;;;;;;;16.35;14.70;;;;;;;;;;5051515;28;20226;-81
2021/03/01 11:29:19;;;;;;;15.80;14.00;;;;;;;;;;5043760;28;20265;-79
2021/03/01 11:31:48;;;;;;;16.05;14.20;;;;;;;;;;5074036;28;20230;-80
2021/03/01 11:34:18;;;;;;;16.10;14.57;;;;;;;;;;5052635;28;20226;-80
2021/03/01 11:36:46;;;;;;;15.57;14.02;;;;;;;;;;5064742;28;20231;-80
2021/03/01 11:39:14;;;;;;;16.05;14.63;;;;;;;;;;5068852;28;20600;-80
2021/03/01 11:41:42;;;;;;;18.67;14.75;;;;;;;;;;5062157;28;20234;-82
2021/03/01 11:44:10;;;;;;;17.63;15.85;;;;;;;;;;5067177;28;20220;-81
2021/03/01 11:46:38;;;;;;;16.30;14.70;;;;;;;;;;5044277;28;20227;-80
2021/03/01 11:49:07;;;;;;;15.73;14.20;;;;;;;;;;5073298;28;20218;-78
2021/03/01 11:51:35;;;;;;;16.30;14.65;;;;;;;;;;5075917;28;20237;-79
2021/03/01 11:54:03;;;;;;;16.25;14.73;;;;;;;;;;5094073;28;20221;-79
2021/03/01 11:56:31;;;;;;;16.02;14.48;;;;;;;;;;5082251;28;20874;-82
2021/03/01 11:59:03;;;;;;;16.83;15.20;;;;;;;;;;5085470;28;20700;-80
2021/03/01 12:01:33;;;;;;;16.65;15.02;;;;;;;;;;5059198;28;20219;-80
2021/03/01 12:04:01;;;;;;;16.02;14.02;;;;;;;;;;5066242;28;20223;-81
2021/03/01 12:06:29;;;;;;;16.48;14.88;;;;;;;;;;5040899;28;20238;-79
2021/03/01 12:08:56;;;;;;;15.95;14.45;;;;;;;;;;5061939;28;20233;-79
2021/03/01 12:11:24;;;;;;;16.70;15.00;;;;;;;;;;5061803;28;20230;-80
2021/03/01 12:13:51;;;;;;;16.15;14.65;;;;;;;;;;5061423;28;20219;-79
2021/03/01 12:16:20;;;;;;;16.17;14.68;;;;;;;;;;5061060;28;20702;-79
2021/03/01 12:18:48;;;;;;;16.35;14.82;;;;;;;;;;5062997;28;20597;-80
2021/03/01 12:21:15;;;;;;;17.27;15.68;;;;;;;;;;5063012;28;20237;-79
2021/03/01 12:23:42;;;;;;;16.42;14.85;;;;;;;;;;5059353;28;20219;-78
2021/03/01 12:26:11;;;;;;;16.45;14.75;;;;;;;;;;5058237;28;20223;-78
2021/03/01 12:28:38;;;;;;;16.17;14.75;;;;;;;;;;5072632;28;21798;-80
2021/03/01 12:31:06;;;;;;;17.30;15.45;;;;;;;;;;5078652;28;20445;-79
2021/03/01 12:33:50;;;;;;;15.63;14.23;;;;;;;;;;5088105;28;20727;-80
2021/03/01 12:36:18;;;;;;;15.05;13.70;;;;;;;;;;5067430;28;20221;-79
2021/03/01 12:38:46;;;;;;;15.68;14.18;;;;;;;;;;5082225;28;23382;-76
2021/03/01 12:41:14;;;;;;;17.20;15.63;;;;;;;;;;5074767;28;20522;-78
2021/03/01 12:43:41;;;;;;;14.85;13.45;;;;;;;;;;5078957;28;20222;-79
2021/03/01 12:46:09;;;;;;;16.67;15.18;;;;;;;;;;5085497;27;20223;-79
2021/03/01 12:48:37;;;;;;;16.23;14.82;;;;;;;;;;5074367;28;20237;-78
2021/03/01 12:51:06;;;;;;;15.13;13.77;;;;;;;;;;5085628;28;20214;-78
2021/03/01 12:53:33;;;;;;;15.50;14.00;;;;;;;;;;5084118;28;20232;-80
2021/03/01 12:56:02;;;;;;;17.00;15.40;;;;;;;;;;5067404;28;20226;-78
2021/03/01 12:58:29;;;;;;;16.67;15.18;;;;;;;;;;5081801;28;20241;-78
2021/03/01 13:00:57;;;;;;;16.52;15.05;;;;;;;;;;5074657;28;20210;-76
2021/03/01 13:03:37;;;;;;;16.90;15.30;;;;;;;;;;5074733;28;20232;-75
2021/03/01 13:06:06;;;;;;;16.00;14.50;;;;;;;;;;5076619;28;20624;-79
2021/03/01 13:08:34;;;;;;;16.05;14.18;;;;;;;;;;5070651;28;20233;-79
2021/03/01 13:11:02;;;;;;;17.52;15.68;;;;;;;;;;5063700;28;20226;-80
2021/03/01 13:13:29;;;;;;;16.92;15.35;;;;;;;;;;5074386;28;20227;-77
2021/03/01 13:15:57;;;;;;;16.65;15.23;;;;;;;;;;5062699;28;20238;-76
2021/03/01 13:18:24;;;;;;;16.48;15.05;;;;;;;;;;5082500;28;20222;-79
2021/03/01 13:20:52;;;;;;;16.15;14.75;;;;;;;;;;5069787;28;20230;-79
2021/03/01 13:23:21;;;;;;;15.57;14.18;;;;;;;;;;5053460;28;20222;-79
2021/03/01 13:25:48;;;;;;;15.90;14.55;;;;;;;;;;5073484;28;20257;-79
2021/03/01 13:28:16;;;;;;;15.18;13.88;;;;;;;;;;5056131;28;20667;-78
2021/03/01 13:30:43;;;;;;;15.98;14.48;;;;;;;;;;5070467;28;20230;-78
2021/03/01 13:33:12;;;;;;;16.67;15.18;;;;;;;;;;5078891;28;20301;-79
2021/03/01 13:35:40;;;;;;;15.95;14.45;;;;;;;;;;5062708;28;20225;-78
2021/03/01 13:38:07;;;;;;;14.60;13.20;;;;;;;;;;5071119;28;20227;-78
2021/03/01 13:40:36;;;;;;;14.45;13.07;;;;;;;;;;5069157;28;20223;-78
2021/03/01 13:43:09;;;;;;;15.55;14.25;;;;;;;;;;5066693;28;20218;-79
2021/03/01 13:45:37;;;;;;;14.32;13.02;;;;;;;;;;5070365;28;20569;-78
2021/03/01 13:48:05;;;;;;;15.98;14.50;;;;;;;;;;5066768;28;20703;-79
2021/03/01 13:50:36;;;;;;;14.98;13.73;;;;;;;;;;5061464;28;20590;-79
2021/03/01 13:53:04;;;;;;;15.43;13.93;;;;;;;;;;5070726;28;20246;-77
2021/03/01 13:55:31;;;;;;;16.10;14.70;;;;;;;;;;5055046;28;20526;-78
2021/03/01 13:58:00;;;;;;;14.35;13.10;;;;;;;;;;5069374;28;20222;-79
2021/03/01 14:00:28;;;;;;;15.70;14.20;;;;;;;;;;5068240;28;20225;-78
2021/03/01 14:03:15;;;;;;;15.48;14.07;;;;;;;;;;5090062;28;20229;-80
2021/03/01 14:05:43;;;;;;;14.88;13.50;;;;;;;;;;5070539;28;20230;-78
2021/03/01 14:08:10;;;;;;;14.55;13.25;;;;;;;;;;5089725;28;20639;-78
2021/03/01 14:10:37;;;;;;;15.15;13.65;;;;;;;;;;5070963;28;20223;-79
2021/03/01 14:13:07;;;;;;;15.65;14.20;;;;;;;;;;5050149;28;20615;-74
2021/03/01 14:15:34;;;;;;;15.38;13.88;;;;;;;;;;5084322;28;20223;-75
2021/03/01 14:18:02;;;;;;;15.55;13.88;;;;;;;;;;5062056;28;20222;-80
2021/03/01 14:20:30;;;;;;;14.45;12.95;;;;;;;;;;5069577;28;20223;-77
2021/03/01 14:22:57;;;;;;;14.05;12.65;;;;;;;;;;5077391;28;20221;-81
2021/03/01 14:25:25;;;;;;;15.30;13.57;;;;;;;;;;5053507;28;20226;-80
2021/03/01 14:27:58;;;;;;;14.82;13.23;;;;;;;;;;5060349;28;20235;-82
2021/03/01 14:30:28;;;;;;;14.10;12.65;;;;;;;;;;5065293;28;20234;-81
2021/03/01 14:33:15;;;;;;;14.98;12.57;;;;;;;;;;5071199;28;20728;-81